sensor_id;sensor_type;location;lat;lon;timestamp;P1;durP1;ratioP1;P2;durP2;ratioP2
22929;SDS011;11630;42.660;23.292;2022-09-24T00:01:19;13.07;;;8.43;;
22929;SDS011;11630;42.660;23.292;2022-09-24T00:03:52;13.17;;;7.87;;
22929;SDS011;11630;42.660;23.292;2022-09-24T00:06:24;12.57;;;8.50;;
22929;SDS011;11630;42.660;23.292;2022-09-24T00:08:55;15.77;;;8.33;;
22929;SDS011;11630;42.660;23.292;2022-09-24T00:11:26;13.87;;;8.30;;
22929;SDS011;11630;42.660;23.292;2022-09-24T00:13:58;13.67;;;7.80;;
22929;SDS011;11630;42.660;23.292;2022-09-24T00:16:29;9.47;;;7.33;;
22929;SDS011;11630;42.660;23.292;2022-09-24T00:19:01;12.83;;;7.80;;
22929;SDS011;11630;42.660;23.292;2022-09-24T00:21:33;16.47;;;8.00;;
22929;SDS011;11630;42.660;23.292;2022-09-24T00:24:07;9.70;;;7.10;;
22929;SDS011;11630;42.660;23.292;2022-09-24T00:26:57;13.07;;;7.47;;
22929;SDS011;11630;42.660;23.292;2022-09-24T00:29:29;8.90;;;7.03;;
22929;SDS011;11630;42.660;23.292;2022-09-24T00:32:00;8.50;;;5.77;;
22929;SDS011;11630;42.660;23.292;2022-09-24T00:34:32;9.10;;;6.80;;
22929;SDS011;11630;42.660;23.292;2022-09-24T00:37:04;14.33;;;7.30;;
22929;SDS011;11630;42.660;23.292;2022-09-24T00:39:36;13.33;;;7.27;;
22929;SDS011;11630;42.660;23.292;2022-09-24T00:42:07;11.50;;;7.47;;
22929;SDS011;11630;42.660;23.292;2022-09-24T00:49:51;10.83;;;6.63;;
22929;SDS011;11630;42.660;23.292;2022-09-24T00:52:33;9.33;;;6.97;;
22929;SDS011;11630;42.660;23.292;2022-09-24T00:55:06;7.87;;;6.67;;
22929;SDS011;11630;42.660;23.292;2022-09-24T00:57:38;13.87;;;7.87;;
22929;SDS011;11630;42.660;23.292;2022-09-24T01:00:11;12.17;;;7.13;;
22929;SDS011;11630;42.660;23.292;2022-09-24T01:02:42;14.70;;;7.30;;
22929;SDS011;11630;42.660;23.292;2022-09-24T01:05:14;9.30;;;7.20;;
22929;SDS011;11630;42.660;23.292;2022-09-24T01:07:45;10.20;;;6.23;;
22929;SDS011;11630;42.660;23.292;2022-09-24T01:10:16;9.30;;;7.10;;
22929;SDS011;11630;42.660;23.292;2022-09-24T01:12:54;11.13;;;6.63;;
22929;SDS011;11630;42.660;23.292;2022-09-24T01:15:24;11.20;;;6.60;;
22929;SDS011;11630;42.660;23.292;2022-09-24T01:18:06;11.27;;;7.07;;
22929;SDS011;11630;42.660;23.292;2022-09-24T01:32:03;7.20;;;5.80;;
22929;SDS011;11630;42.660;23.292;2022-09-24T01:34:43;10.37;;;5.90;;
22929;SDS011;11630;42.660;23.292;2022-09-24T01:37:14;9.63;;;6.63;;
22929;SDS011;11630;42.660;23.292;2022-09-24T01:39:47;10.03;;;5.90;;
22929;SDS011;11630;42.660;23.292;2022-09-24T01:42:22;7.57;;;6.30;;
22929;SDS011;11630;42.660;23.292;2022-09-24T01:44:55;7.60;;;6.07;;
22929;SDS011;11630;42.660;23.292;2022-09-24T01:47:31;11.80;;;5.90;;
22929;SDS011;11630;42.660;23.292;2022-09-24T01:50:02;9.03;;;6.53;;
22929;SDS011;11630;42.660;23.292;2022-09-24T01:52:35;10.93;;;6.70;;
22929;SDS011;11630;42.660;23.292;2022-09-24T01:55:19;7.50;;;6.30;;
22929;SDS011;11630;42.660;23.292;2022-09-24T01:57:52;9.37;;;6.87;;
22929;SDS011;11630;42.660;23.292;2022-09-24T02:00:23;7.60;;;6.20;;
22929;SDS011;11630;42.660;23.292;2022-09-24T02:02:58;6.77;;;6.07;;
22929;SDS011;11630;42.660;23.292;2022-09-24T02:08:17;7.33;;;6.00;;
22929;SDS011;11630;42.660;23.292;2022-09-24T02:10:54;10.60;;;6.23;;
22929;SDS011;11630;42.660;23.292;2022-09-24T02:13:32;7.77;;;5.93;;
22929;SDS011;11630;42.660;23.292;2022-09-24T02:16:02;7.57;;;6.17;;
22929;SDS011;11630;42.660;23.292;2022-09-24T02:18:35;9.60;;;6.00;;
22929;SDS011;11630;42.660;23.292;2022-09-24T02:21:07;10.20;;;6.37;;
22929;SDS011;11630;42.660;23.292;2022-09-24T02:23:42;9.17;;;6.03;;
22929;SDS011;11630;42.660;23.292;2022-09-24T02:26:30;7.00;;;6.20;;
22929;SDS011;11630;42.660;23.292;2022-09-24T02:29:02;7.67;;;6.43;;
22929;SDS011;11630;42.660;23.292;2022-09-24T02:31:35;6.87;;;6.00;;
22929;SDS011;11630;42.660;23.292;2022-09-24T02:34:08;8.10;;;6.00;;
22929;SDS011;11630;42.660;23.292;2022-09-24T02:36:58;7.50;;;5.60;;
22929;SDS011;11630;42.660;23.292;2022-09-24T02:39:29;8.90;;;6.33;;
22929;SDS011;11630;42.660;23.292;2022-09-24T02:42:03;9.40;;;5.97;;
22929;SDS011;11630;42.660;23.292;2022-09-24T02:44:35;11.30;;;6.70;;
22929;SDS011;11630;42.660;23.292;2022-09-24T02:47:06;9.57;;;6.97;;
22929;SDS011;11630;42.660;23.292;2022-09-24T02:49:36;9.27;;;6.50;;
22929;SDS011;11630;42.660;23.292;2022-09-24T02:52:08;9.10;;;7.43;;
22929;SDS011;11630;42.660;23.292;2022-09-24T02:54:39;9.03;;;6.80;;
22929;SDS011;11630;42.660;23.292;2022-09-24T02:57:10;11.63;;;7.40;;
22929;SDS011;11630;42.660;23.292;2022-09-24T02:59:41;8.30;;;6.43;;
22929;SDS011;11630;42.660;23.292;2022-09-24T03:02:13;8.67;;;7.27;;
22929;SDS011;11630;42.660;23.292;2022-09-24T03:04:44;8.07;;;6.43;;
22929;SDS011;11630;42.660;23.292;2022-09-24T03:07:15;11.53;;;6.20;;
22929;SDS011;11630;42.660;23.292;2022-09-24T03:09:45;7.57;;;6.83;;
22929;SDS011;11630;42.660;23.292;2022-09-24T03:12:16;7.10;;;6.40;;
22929;SDS011;11630;42.660;23.292;2022-09-24T03:14:47;12.63;;;6.50;;
22929;SDS011;11630;42.660;23.292;2022-09-24T03:17:18;13.73;;;6.57;;
22929;SDS011;11630;42.660;23.292;2022-09-24T03:19:48;7.00;;;6.20;;
22929;SDS011;11630;42.660;23.292;2022-09-24T03:22:19;8.93;;;6.17;;
22929;SDS011;11630;42.660;23.292;2022-09-24T03:24:50;8.93;;;6.67;;
22929;SDS011;11630;42.660;23.292;2022-09-24T03:27:20;10.00;;;6.50;;
22929;SDS011;11630;42.660;23.292;2022-09-24T03:29:51;9.53;;;6.03;;
22929;SDS011;11630;42.660;23.292;2022-09-24T03:32:39;7.77;;;6.23;;
22929;SDS011;11630;42.660;23.292;2022-09-24T03:35:09;6.87;;;5.80;;
22929;SDS011;11630;42.660;23.292;2022-09-24T03:37:40;9.10;;;5.83;;
22929;SDS011;11630;42.660;23.292;2022-09-24T03:40:11;12.47;;;6.53;;
22929;SDS011;11630;42.660;23.292;2022-09-24T03:42:43;8.40;;;5.97;;
22929;SDS011;11630;42.660;23.292;2022-09-24T03:45:14;9.43;;;7.10;;
22929;SDS011;11630;42.660;23.292;2022-09-24T03:47:44;7.50;;;6.17;;
22929;SDS011;11630;42.660;23.292;2022-09-24T03:50:15;9.67;;;6.60;;
22929;SDS011;11630;42.660;23.292;2022-09-24T03:52:45;11.20;;;7.03;;
22929;SDS011;11630;42.660;23.292;2022-09-24T03:55:16;9.43;;;7.97;;
22929;SDS011;11630;42.660;23.292;2022-09-24T03:57:47;10.60;;;6.90;;
22929;SDS011;11630;42.660;23.292;2022-09-24T04:00:17;11.60;;;8.20;;
22929;SDS011;11630;42.660;23.292;2022-09-24T04:02:49;9.60;;;6.60;;
22929;SDS011;11630;42.660;23.292;2022-09-24T04:05:19;11.80;;;7.07;;
22929;SDS011;11630;42.660;23.292;2022-09-24T04:07:52;8.67;;;7.23;;
22929;SDS011;11630;42.660;23.292;2022-09-24T04:10:23;8.83;;;6.87;;
22929;SDS011;11630;42.660;23.292;2022-09-24T04:12:53;9.47;;;6.97;;
22929;SDS011;11630;42.660;23.292;2022-09-24T04:15:23;10.33;;;7.40;;
22929;SDS011;11630;42.660;23.292;2022-09-24T04:17:57;14.13;;;6.40;;
22929;SDS011;11630;42.660;23.292;2022-09-24T04:20:29;12.77;;;7.77;;
22929;SDS011;11630;42.660;23.292;2022-09-24T04:23:00;14.10;;;7.23;;
22929;SDS011;11630;42.660;23.292;2022-09-24T04:25:31;6.80;;;6.10;;
22929;SDS011;11630;42.660;23.292;2022-09-24T04:28:04;9.80;;;6.33;;
22929;SDS011;11630;42.660;23.292;2022-09-24T04:30:34;16.63;;;7.30;;
22929;SDS011;11630;42.660;23.292;2022-09-24T04:33:06;14.27;;;6.90;;
22929;SDS011;11630;42.660;23.292;2022-09-24T04:35:37;12.30;;;6.77;;
22929;SDS011;11630;42.660;23.292;2022-09-24T04:38:07;10.40;;;7.77;;
22929;SDS011;11630;42.660;23.292;2022-09-24T04:40:37;13.60;;;7.30;;
22929;SDS011;11630;42.660;23.292;2022-09-24T04:43:08;11.03;;;7.23;;
22929;SDS011;11630;42.660;23.292;2022-09-24T04:45:40;13.23;;;8.00;;
22929;SDS011;11630;42.660;23.292;2022-09-24T04:48:11;22.20;;;11.20;;
22929;SDS011;11630;42.660;23.292;2022-09-24T04:50:42;20.00;;;9.93;;
22929;SDS011;11630;42.660;23.292;2022-09-24T04:53:13;21.30;;;11.73;;
22929;SDS011;11630;42.660;23.292;2022-09-24T04:55:44;16.90;;;9.00;;
22929;SDS011;11630;42.660;23.292;2022-09-24T04:58:14;16.47;;;9.23;;
22929;SDS011;11630;42.660;23.292;2022-09-24T05:00:45;12.90;;;8.57;;
22929;SDS011;11630;42.660;23.292;2022-09-24T05:03:16;13.53;;;9.67;;
22929;SDS011;11630;42.660;23.292;2022-09-24T05:05:48;13.60;;;9.03;;
22929;SDS011;11630;42.660;23.292;2022-09-24T05:08:19;16.13;;;10.60;;
22929;SDS011;11630;42.660;23.292;2022-09-24T05:10:50;18.73;;;10.23;;
22929;SDS011;11630;42.660;23.292;2022-09-24T05:13:21;12.67;;;9.37;;
22929;SDS011;11630;42.660;23.292;2022-09-24T05:15:52;13.73;;;9.53;;
22929;SDS011;11630;42.660;23.292;2022-09-24T05:18:22;18.10;;;10.03;;
22929;SDS011;11630;42.660;23.292;2022-09-24T05:20:53;15.60;;;9.90;;
22929;SDS011;11630;42.660;23.292;2022-09-24T05:23:30;13.93;;;9.33;;
22929;SDS011;11630;42.660;23.292;2022-09-24T05:26:01;14.87;;;8.97;;
22929;SDS011;11630;42.660;23.292;2022-09-24T05:28:48;14.37;;;9.13;;
22929;SDS011;11630;42.660;23.292;2022-09-24T05:31:22;13.07;;;10.47;;
22929;SDS011;11630;42.660;23.292;2022-09-24T05:33:53;14.93;;;9.57;;
22929;SDS011;11630;42.660;23.292;2022-09-24T05:36:24;10.13;;;8.80;;
22929;SDS011;11630;42.660;23.292;2022-09-24T05:38:55;15.90;;;9.97;;
22929;SDS011;11630;42.660;23.292;2022-09-24T05:41:25;15.40;;;9.67;;
22929;SDS011;11630;42.660;23.292;2022-09-24T05:43:56;16.20;;;10.60;;
22929;SDS011;11630;42.660;23.292;2022-09-24T05:46:27;17.13;;;9.83;;
22929;SDS011;11630;42.660;23.292;2022-09-24T05:48:58;16.93;;;10.83;;
22929;SDS011;11630;42.660;23.292;2022-09-24T05:51:28;16.83;;;11.50;;
22929;SDS011;11630;42.660;23.292;2022-09-24T05:53:59;17.40;;;11.23;;
22929;SDS011;11630;42.660;23.292;2022-09-24T05:56:30;14.53;;;10.60;;
22929;SDS011;11630;42.660;23.292;2022-09-24T05:59:01;12.97;;;10.27;;
22929;SDS011;11630;42.660;23.292;2022-09-24T06:01:33;11.60;;;9.53;;
22929;SDS011;11630;42.660;23.292;2022-09-24T06:04:03;19.27;;;13.93;;
22929;SDS011;11630;42.660;23.292;2022-09-24T06:06:34;12.73;;;9.03;;
22929;SDS011;11630;42.660;23.292;2022-09-24T06:09:04;11.50;;;8.77;;
22929;SDS011;11630;42.660;23.292;2022-09-24T06:11:36;7.67;;;6.90;;
22929;SDS011;11630;42.660;23.292;2022-09-24T06:14:06;10.37;;;7.47;;
22929;SDS011;11630;42.660;23.292;2022-09-24T06:16:39;7.87;;;6.90;;
22929;SDS011;11630;42.660;23.292;2022-09-24T06:19:10;7.10;;;5.97;;
22929;SDS011;11630;42.660;23.292;2022-09-24T06:21:41;11.77;;;7.40;;
22929;SDS011;11630;42.660;23.292;2022-09-24T06:24:12;9.30;;;8.23;;
22929;SDS011;11630;42.660;23.292;2022-09-24T06:26:42;12.50;;;8.47;;
22929;SDS011;11630;42.660;23.292;2022-09-24T06:29:13;9.73;;;8.43;;
22929;SDS011;11630;42.660;23.292;2022-09-24T06:31:45;10.93;;;7.77;;
22929;SDS011;11630;42.660;23.292;2022-09-24T06:34:19;9.40;;;7.87;;
22929;SDS011;11630;42.660;23.292;2022-09-24T06:36:52;11.83;;;9.20;;
22929;SDS011;11630;42.660;23.292;2022-09-24T06:39:23;11.03;;;8.90;;
22929;SDS011;11630;42.660;23.292;2022-09-24T06:41:54;9.53;;;8.17;;
22929;SDS011;11630;42.660;23.292;2022-09-24T06:44:25;9.97;;;8.60;;
22929;SDS011;11630;42.660;23.292;2022-09-24T06:46:56;14.27;;;9.33;;
22929;SDS011;11630;42.660;23.292;2022-09-24T06:49:27;10.70;;;8.93;;
22929;SDS011;11630;42.660;23.292;2022-09-24T06:51:58;13.20;;;9.17;;
22929;SDS011;11630;42.660;23.292;2022-09-24T06:54:29;14.07;;;9.33;;
22929;SDS011;11630;42.660;23.292;2022-09-24T06:57:01;12.13;;;9.40;;
22929;SDS011;11630;42.660;23.292;2022-09-24T06:59:32;14.27;;;9.10;;
22929;SDS011;11630;42.660;23.292;2022-09-24T07:02:03;11.50;;;9.00;;
22929;SDS011;11630;42.660;23.292;2022-09-24T07:04:37;14.93;;;9.73;;
22929;SDS011;11630;42.660;23.292;2022-09-24T07:07:08;15.23;;;9.20;;
22929;SDS011;11630;42.660;23.292;2022-09-24T07:09:58;12.17;;;7.93;;
22929;SDS011;11630;42.660;23.292;2022-09-24T07:12:33;19.73;;;8.00;;
22929;SDS011;11630;42.660;23.292;2022-09-24T07:15:03;12.60;;;9.33;;
22929;SDS011;11630;42.660;23.292;2022-09-24T07:17:35;8.53;;;7.63;;
22929;SDS011;11630;42.660;23.292;2022-09-24T07:20:07;10.27;;;8.17;;
22929;SDS011;11630;42.660;23.292;2022-09-24T07:22:38;10.33;;;8.57;;
22929;SDS011;11630;42.660;23.292;2022-09-24T07:25:09;11.40;;;8.00;;
22929;SDS011;11630;42.660;23.292;2022-09-24T07:27:42;16.23;;;9.13;;
22929;SDS011;11630;42.660;23.292;2022-09-24T07:30:13;14.33;;;8.53;;
22929;SDS011;11630;42.660;23.292;2022-09-24T07:32:45;14.47;;;7.93;;
22929;SDS011;11630;42.660;23.292;2022-09-24T07:35:17;14.70;;;8.27;;
22929;SDS011;11630;42.660;23.292;2022-09-24T07:37:47;11.47;;;7.60;;
22929;SDS011;11630;42.660;23.292;2022-09-24T07:40:19;8.23;;;7.30;;
22929;SDS011;11630;42.660;23.292;2022-09-24T07:42:50;17.43;;;8.63;;
22929;SDS011;11630;42.660;23.292;2022-09-24T07:45:21;11.60;;;7.60;;
22929;SDS011;11630;42.660;23.292;2022-09-24T07:48:08;11.67;;;7.80;;
22929;SDS011;11630;42.660;23.292;2022-09-24T07:53:17;9.93;;;6.63;;
22929;SDS011;11630;42.660;23.292;2022-09-24T07:55:48;8.47;;;6.27;;
22929;SDS011;11630;42.660;23.292;2022-09-24T07:58:18;7.93;;;7.20;;
22929;SDS011;11630;42.660;23.292;2022-09-24T08:00:51;8.03;;;6.60;;
22929;SDS011;11630;42.660;23.292;2022-09-24T08:03:23;9.27;;;7.20;;
22929;SDS011;11630;42.660;23.292;2022-09-24T08:05:53;10.97;;;5.90;;
22929;SDS011;11630;42.660;23.292;2022-09-24T08:08:23;7.67;;;6.17;;
22929;SDS011;11630;42.660;23.292;2022-09-24T08:10:52;8.67;;;6.63;;
22929;SDS011;11630;42.660;23.292;2022-09-24T08:13:25;7.57;;;5.87;;
22929;SDS011;11630;42.660;23.292;2022-09-24T08:15:56;8.70;;;5.87;;
22929;SDS011;11630;42.660;23.292;2022-09-24T08:18:28;9.73;;;6.43;;
22929;SDS011;11630;42.660;23.292;2022-09-24T08:21:06;10.40;;;6.30;;
22929;SDS011;11630;42.660;23.292;2022-09-24T08:23:39;7.50;;;5.73;;
22929;SDS011;11630;42.660;23.292;2022-09-24T08:26:10;6.93;;;6.13;;
22929;SDS011;11630;42.660;23.292;2022-09-24T08:28:41;37.23;;;25.77;;
22929;SDS011;11630;42.660;23.292;2022-09-24T08:31:12;14.23;;;8.07;;
22929;SDS011;11630;42.660;23.292;2022-09-24T08:33:43;8.93;;;5.93;;
22929;SDS011;11630;42.660;23.292;2022-09-24T08:36:14;8.23;;;6.00;;
22929;SDS011;11630;42.660;23.292;2022-09-24T08:38:45;8.90;;;6.23;;
22929;SDS011;11630;42.660;23.292;2022-09-24T08:44:41;10.00;;;6.87;;
22929;SDS011;11630;42.660;23.292;2022-09-24T08:47:23;7.70;;;6.30;;
22929;SDS011;11630;42.660;23.292;2022-09-24T08:50:01;9.93;;;6.13;;
22929;SDS011;11630;42.660;23.292;2022-09-24T08:52:37;10.20;;;7.03;;
22929;SDS011;11630;42.660;23.292;2022-09-24T08:55:16;10.13;;;7.23;;
22929;SDS011;11630;42.660;23.292;2022-09-24T09:03:51;8.93;;;7.03;;
22929;SDS011;11630;42.660;23.292;2022-09-24T09:12:11;9.43;;;6.17;;
22929;SDS011;11630;42.660;23.292;2022-09-24T09:20:29;9.67;;;6.93;;
22929;SDS011;11630;42.660;23.292;2022-09-24T09:22:50;8.20;;;6.80;;
22929;SDS011;11630;42.660;23.292;2022-09-24T09:25:24;9.00;;;6.93;;
22929;SDS011;11630;42.660;23.292;2022-09-24T09:28:06;18.17;;;8.10;;
22929;SDS011;11630;42.660;23.292;2022-09-24T09:36:34;8.63;;;6.93;;
22929;SDS011;11630;42.660;23.292;2022-09-24T09:39:33;11.27;;;6.30;;
22929;SDS011;11630;42.660;23.292;2022-09-24T09:42:15;8.50;;;7.10;;
22929;SDS011;11630;42.660;23.292;2022-09-24T09:44:47;9.70;;;7.10;;
22929;SDS011;11630;42.660;23.292;2022-09-24T09:52:57;12.03;;;6.50;;
22929;SDS011;11630;42.660;23.292;2022-09-24T09:55:34;12.90;;;7.50;;
22929;SDS011;11630;42.660;23.292;2022-09-24T09:58:18;12.17;;;7.07;;
22929;SDS011;11630;42.660;23.292;2022-09-24T10:01:12;12.47;;;7.27;;
22929;SDS011;11630;42.660;23.292;2022-09-24T10:03:47;12.13;;;7.53;;
22929;SDS011;11630;42.660;23.292;2022-09-24T10:06:25;13.83;;;7.30;;
22929;SDS011;11630;42.660;23.292;2022-09-24T10:09:05;18.23;;;6.90;;
22929;SDS011;11630;42.660;23.292;2022-09-24T10:11:36;8.50;;;5.87;;
22929;SDS011;11630;42.660;23.292;2022-09-24T10:14:09;6.10;;;4.07;;
22929;SDS011;11630;42.660;23.292;2022-09-24T10:16:41;11.73;;;5.90;;
22929;SDS011;11630;42.660;23.292;2022-09-24T10:19:25;7.00;;;5.47;;
22929;SDS011;11630;42.660;23.292;2022-09-24T10:21:53;10.57;;;5.53;;
22929;SDS011;11630;42.660;23.292;2022-09-24T10:24:26;8.23;;;4.90;;
22929;SDS011;11630;42.660;23.292;2022-09-24T10:26:57;4.07;;;2.60;;
22929;SDS011;11630;42.660;23.292;2022-09-24T10:29:31;8.07;;;2.20;;
22929;SDS011;11630;42.660;23.292;2022-09-24T10:32:20;3.50;;;2.20;;
22929;SDS011;11630;42.660;23.292;2022-09-24T10:34:59;8.13;;;2.60;;
22929;SDS011;11630;42.660;23.292;2022-09-24T10:37:30;9.53;;;3.60;;
22929;SDS011;11630;42.660;23.292;2022-09-24T10:40:11;14.60;;;3.70;;
22929;SDS011;11630;42.660;23.292;2022-09-24T10:42:42;6.70;;;3.00;;
22929;SDS011;11630;42.660;23.292;2022-09-24T10:45:14;4.30;;;3.47;;
22929;SDS011;11630;42.660;23.292;2022-09-24T10:47:52;2.80;;;2.30;;
22929;SDS011;11630;42.660;23.292;2022-09-24T10:50:45;4.97;;;2.60;;
22929;SDS011;11630;42.660;23.292;2022-09-24T10:53:20;6.57;;;2.43;;
22929;SDS011;11630;42.660;23.292;2022-09-24T10:58:46;2.80;;;2.13;;
22929;SDS011;11630;42.660;23.292;2022-09-24T11:04:09;14.47;;;2.90;;
22929;SDS011;11630;42.660;23.292;2022-09-24T11:06:56;10.77;;;2.60;;
22929;SDS011;11630;42.660;23.292;2022-09-24T11:09:28;5.53;;;2.47;;
22929;SDS011;11630;42.660;23.292;2022-09-24T11:14:55;2.43;;;2.10;;
22929;SDS011;11630;42.660;23.292;2022-09-24T11:20:32;3.27;;;1.90;;
22929;SDS011;11630;42.660;23.292;2022-09-24T11:25:49;2.93;;;1.77;;
22929;SDS011;11630;42.660;23.292;2022-09-24T11:42:25;2.90;;;2.33;;
22929;SDS011;11630;42.660;23.292;2022-09-24T11:44:59;3.73;;;2.27;;
22929;SDS011;11630;42.660;23.292;2022-09-24T11:53:14;2.23;;;2.03;;
22929;SDS011;11630;42.660;23.292;2022-09-24T11:55:57;3.87;;;2.27;;
22929;SDS011;11630;42.660;23.292;2022-09-24T11:58:33;2.73;;;2.20;;
22929;SDS011;11630;42.660;23.292;2022-09-24T12:01:13;7.37;;;1.93;;
22929;SDS011;11630;42.660;23.292;2022-09-24T12:03:57;4.37;;;2.03;;
22929;SDS011;11630;42.660;23.292;2022-09-24T12:12:05;5.90;;;1.97;;
22929;SDS011;11630;42.660;23.292;2022-09-24T12:14:42;7.37;;;2.40;;
22929;SDS011;11630;42.660;23.292;2022-09-24T12:17:22;3.27;;;2.00;;
22929;SDS011;11630;42.660;23.292;2022-09-24T12:19:51;2.20;;;1.93;;
22929;SDS011;11630;42.660;23.292;2022-09-24T12:22:21;1.90;;;1.63;;
22929;SDS011;11630;42.660;23.292;2022-09-24T12:24:56;2.60;;;2.03;;
22929;SDS011;11630;42.660;23.292;2022-09-24T12:27:35;3.37;;;2.10;;
22929;SDS011;11630;42.660;23.292;2022-09-24T12:33:26;2.47;;;2.00;;
22929;SDS011;11630;42.660;23.292;2022-09-24T12:36:07;2.60;;;2.13;;
22929;SDS011;11630;42.660;23.292;2022-09-24T12:38:54;2.67;;;2.47;;
22929;SDS011;11630;42.660;23.292;2022-09-24T12:41:26;4.77;;;2.20;;
22929;SDS011;11630;42.660;23.292;2022-09-24T12:43:59;5.30;;;2.30;;
22929;SDS011;11630;42.660;23.292;2022-09-24T12:46:41;2.93;;;2.07;;
22929;SDS011;11630;42.660;23.292;2022-09-24T12:49:23;5.23;;;2.00;;
22929;SDS011;11630;42.660;23.292;2022-09-24T12:51:58;2.50;;;2.13;;
22929;SDS011;11630;42.660;23.292;2022-09-24T12:54:52;2.27;;;2.07;;
22929;SDS011;11630;42.660;23.292;2022-09-24T12:57:23;2.13;;;1.87;;
22929;SDS011;11630;42.660;23.292;2022-09-24T12:59:59;2.40;;;2.20;;
22929;SDS011;11630;42.660;23.292;2022-09-24T13:02:44;2.07;;;1.77;;
22929;SDS011;11630;42.660;23.292;2022-09-24T13:05:23;2.70;;;1.90;;
22929;SDS011;11630;42.660;23.292;2022-09-24T13:10:27;3.33;;;2.00;;
22929;SDS011;11630;42.660;23.292;2022-09-24T13:13:02;2.90;;;2.50;;
22929;SDS011;11630;42.660;23.292;2022-09-24T13:15:37;2.80;;;2.30;;
22929;SDS011;11630;42.660;23.292;2022-09-24T13:20:54;9.10;;;2.23;;
22929;SDS011;11630;42.660;23.292;2022-09-24T13:26:04;2.90;;;2.30;;
22929;SDS011;11630;42.660;23.292;2022-09-24T13:28:37;3.70;;;2.10;;
22929;SDS011;11630;42.660;23.292;2022-09-24T13:39:28;6.17;;;2.00;;
22929;SDS011;11630;42.660;23.292;2022-09-24T13:44:57;2.30;;;2.10;;
22929;SDS011;11630;42.660;23.292;2022-09-24T13:47:50;2.97;;;2.20;;
22929;SDS011;11630;42.660;23.292;2022-09-24T13:50:27;2.43;;;2.23;;
22929;SDS011;11630;42.660;23.292;2022-09-24T13:53:02;5.10;;;2.53;;
22929;SDS011;11630;42.660;23.292;2022-09-24T13:55:45;3.43;;;2.03;;
22929;SDS011;11630;42.660;23.292;2022-09-24T13:58:30;5.27;;;2.10;;
22929;SDS011;11630;42.660;23.292;2022-09-24T14:01:04;5.33;;;1.97;;
22929;SDS011;11630;42.660;23.292;2022-09-24T14:03:34;2.73;;;1.87;;
22929;SDS011;11630;42.660;23.292;2022-09-24T14:06:10;2.57;;;2.37;;
22929;SDS011;11630;42.660;23.292;2022-09-24T14:08:42;3.37;;;2.20;;
22929;SDS011;11630;42.660;23.292;2022-09-24T14:11:17;3.47;;;1.97;;
22929;SDS011;11630;42.660;23.292;2022-09-24T14:13:49;3.63;;;2.20;;
22929;SDS011;11630;42.660;23.292;2022-09-24T14:16:21;5.33;;;2.57;;
22929;SDS011;11630;42.660;23.292;2022-09-24T14:18:59;7.00;;;2.43;;
22929;SDS011;11630;42.660;23.292;2022-09-24T14:21:34;3.80;;;2.33;;
22929;SDS011;11630;42.660;23.292;2022-09-24T14:24:07;6.97;;;2.50;;
22929;SDS011;11630;42.660;23.292;2022-09-24T14:26:54;3.07;;;2.77;;
22929;SDS011;11630;42.660;23.292;2022-09-24T14:29:30;2.97;;;2.53;;
22929;SDS011;11630;42.660;23.292;2022-09-24T14:32:00;4.17;;;2.53;;
22929;SDS011;11630;42.660;23.292;2022-09-24T14:34:35;4.17;;;2.17;;
22929;SDS011;11630;42.660;23.292;2022-09-24T14:37:19;7.30;;;2.40;;
22929;SDS011;11630;42.660;23.292;2022-09-24T14:40:02;4.30;;;2.77;;
22929;SDS011;11630;42.660;23.292;2022-09-24T14:42:35;8.00;;;3.57;;
22929;SDS011;11630;42.660;23.292;2022-09-24T14:45:08;3.77;;;2.33;;
22929;SDS011;11630;42.660;23.292;2022-09-24T14:47:40;2.57;;;2.07;;
22929;SDS011;11630;42.660;23.292;2022-09-24T14:50:23;2.60;;;2.30;;
22929;SDS011;11630;42.660;23.292;2022-09-24T14:52:55;4.30;;;2.67;;
22929;SDS011;11630;42.660;23.292;2022-09-24T14:55:45;8.43;;;2.60;;
22929;SDS011;11630;42.660;23.292;2022-09-24T14:58:20;11.50;;;3.53;;
22929;SDS011;11630;42.660;23.292;2022-09-24T15:01:01;5.17;;;2.63;;
22929;SDS011;11630;42.660;23.292;2022-09-24T15:03:47;3.50;;;2.77;;
22929;SDS011;11630;42.660;23.292;2022-09-24T15:06:21;7.30;;;3.90;;
22929;SDS011;11630;42.660;23.292;2022-09-24T15:11:34;5.30;;;2.77;;
22929;SDS011;11630;42.660;23.292;2022-09-24T15:14:11;11.27;;;3.27;;
22929;SDS011;11630;42.660;23.292;2022-09-24T15:16:44;16.03;;;3.67;;
22929;SDS011;11630;42.660;23.292;2022-09-24T15:19:17;6.97;;;3.20;;
22929;SDS011;11630;42.660;23.292;2022-09-24T15:21:52;7.43;;;3.00;;
22929;SDS011;11630;42.660;23.292;2022-09-24T15:24:25;4.07;;;3.30;;
22929;SDS011;11630;42.660;23.292;2022-09-24T15:27:00;11.50;;;3.07;;
22929;SDS011;11630;42.660;23.292;2022-09-24T15:29:33;6.43;;;3.17;;
22929;SDS011;11630;42.660;23.292;2022-09-24T15:32:09;7.00;;;3.40;;
22929;SDS011;11630;42.660;23.292;2022-09-24T15:34:39;7.07;;;3.23;;
22929;SDS011;11630;42.660;23.292;2022-09-24T15:37:10;7.50;;;3.30;;
22929;SDS011;11630;42.660;23.292;2022-09-24T15:39:43;6.37;;;3.80;;
22929;SDS011;11630;42.660;23.292;2022-09-24T15:42:18;16.00;;;7.77;;
22929;SDS011;11630;42.660;23.292;2022-09-24T15:44:50;7.43;;;3.93;;
22929;SDS011;11630;42.660;23.292;2022-09-24T15:47:22;11.50;;;4.00;;
22929;SDS011;11630;42.660;23.292;2022-09-24T15:49:52;9.20;;;4.03;;
22929;SDS011;11630;42.660;23.292;2022-09-24T15:52:26;5.73;;;4.73;;
22929;SDS011;11630;42.660;23.292;2022-09-24T15:54:57;11.63;;;3.87;;
22929;SDS011;11630;42.660;23.292;2022-09-24T15:57:28;18.17;;;3.47;;
22929;SDS011;11630;42.660;23.292;2022-09-24T15:59:59;9.07;;;5.50;;
22929;SDS011;11630;42.660;23.292;2022-09-24T16:02:31;8.83;;;4.57;;
22929;SDS011;11630;42.660;23.292;2022-09-24T16:05:04;14.10;;;4.67;;
22929;SDS011;11630;42.660;23.292;2022-09-24T16:07:34;8.87;;;5.00;;
22929;SDS011;11630;42.660;23.292;2022-09-24T16:10:06;6.50;;;4.37;;
22929;SDS011;11630;42.660;23.292;2022-09-24T16:12:39;9.53;;;4.10;;
22929;SDS011;11630;42.660;23.292;2022-09-24T16:15:14;8.90;;;3.87;;
22929;SDS011;11630;42.660;23.292;2022-09-24T16:17:45;8.53;;;4.33;;
22929;SDS011;11630;42.660;23.292;2022-09-24T16:20:16;14.27;;;5.50;;
22929;SDS011;11630;42.660;23.292;2022-09-24T16:22:47;10.50;;;6.30;;
22929;SDS011;11630;42.660;23.292;2022-09-24T16:25:18;7.30;;;3.63;;
22929;SDS011;11630;42.660;23.292;2022-09-24T16:27:49;5.27;;;4.03;;
22929;SDS011;11630;42.660;23.292;2022-09-24T16:30:20;13.70;;;5.90;;
22929;SDS011;11630;42.660;23.292;2022-09-24T16:32:51;10.97;;;5.33;;
22929;SDS011;11630;42.660;23.292;2022-09-24T16:35:21;8.23;;;4.10;;
22929;SDS011;11630;42.660;23.292;2022-09-24T16:37:53;11.83;;;5.63;;
22929;SDS011;11630;42.660;23.292;2022-09-24T16:40:25;6.33;;;4.63;;
22929;SDS011;11630;42.660;23.292;2022-09-24T16:42:55;11.23;;;5.20;;
22929;SDS011;11630;42.660;23.292;2022-09-24T16:45:27;7.37;;;4.70;;
22929;SDS011;11630;42.660;23.292;2022-09-24T16:47:58;11.43;;;4.33;;
22929;SDS011;11630;42.660;23.292;2022-09-24T16:50:30;6.00;;;4.50;;
22929;SDS011;11630;42.660;23.292;2022-09-24T16:53:00;8.27;;;4.67;;
22929;SDS011;11630;42.660;23.292;2022-09-24T16:55:31;6.17;;;5.27;;
22929;SDS011;11630;42.660;23.292;2022-09-24T16:58:02;7.40;;;5.57;;
22929;SDS011;11630;42.660;23.292;2022-09-24T17:00:33;10.53;;;4.07;;
22929;SDS011;11630;42.660;23.292;2022-09-24T17:03:04;8.13;;;4.07;;
22929;SDS011;11630;42.660;23.292;2022-09-24T17:05:36;8.37;;;4.50;;